Athens, Arkansas
Current Conditions -  °F | °C
As of 11:15 PM on Tuesday 25 Nov 2014 (Local Time) from KMEZ Reporting Station
Clear Clear  
Wind Chill: 36°   Ceiling: Unl
Heat Index: 36°   Visibility: 10mi
Dew Point: 32°   Wind: 0mph
Humidity: 87%   Direction: NA
Pressure: 30.13"   Gusts: NA
Location:  34.2871°N, 94.1174°W
Report Text: KMEZ 260515Z AUTO 00000KT 10SM CLR 02/00 A3013 RMK AO2
Loading
Personal Weather Stations






























Interactive Weather Map New forecast layout! Learn more

10-Day Weather Forecast

Advertisements
Track Severe Weather on mobile